KUVA/UVA METAR and TAF weather

Enter ICAO airport designator
Station Type Date Time Source
KUVA METAR 2019/12/07 17:35 UTC NOAA

KUVA 071735Z AUTO 15003KT 10SM CLR 17/04 A3033 RMK AO2 T01670037


Station Type Date Time Source
KUVA Decoded METAR 2019/12/07 17:35 UTC NOAA

Uvalde, Garner Field Airport, TX, United States (KUVA) 29-12-40N 099-44-36W
Dec 07, 2019 - 12:35 PM EST / 2019.12.07 1735 UTC
Wind: from the SSE (150 degrees) at 3 MPH (3 KT):0
Visibility: 10 mile(s):0
Sky conditions: clear
Temperature: 62.1 F (16.7 C)
Dew Point: 38.7 F (3.7 C)
Relative Humidity: 41%
Pressure (altimeter): 30.33 in. Hg (1027 hPa)
ob: KUVA 071735Z AUTO 15003KT 10SM CLR 17/04 A3033 RMK AO2 T01670037
cycle: 17

Station Type Date Time Source
KUVA TAF UTC NOAA

Error!

Example: see airport list